Time;durP1;ratioP1;P1;durP2;ratioP2;P2;SDS_P1;SDS_P2;PMS_P1;PMS_P2;Temp;Humidity;BMP_temperature;BMP_pressure;BME280_temperature;BME280_humidity;BME280_pressure;Samples;Min_cycle;Max_cycle;Signal;HPM_P1;HPM_P2
2022/11/04 00:01:14;;;;;;;;;;;10.50;99.90;;;;;;5096369;27;19921;-68
2022/11/04 00:03:39;;;;;;;;;;;10.40;99.90;;;;;;5079613;28;19932;-68
2022/11/04 00:06:06;;;;;;;;;;;10.40;99.90;;;;;;5073853;28;20022;-67
2022/11/04 00:08:31;;;;;;;;;;;10.30;99.90;;;;;;5048840;28;19924;-69
2022/11/04 00:13:42;;;;;;;;;;;10.30;99.90;;;;;;5097804;27;19928;-71
2022/11/04 00:18:52;;;;;;;;;;;10.20;99.90;;;;;;5069040;28;19927;-70
2022/11/04 00:29:30;;;;;;;;;;;10.00;99.90;;;;;;5074143;28;19990;-69
2022/11/04 00:34:40;;;;;;;;;;;10.10;99.90;;;;;;5084786;28;19946;-71
2022/11/04 00:37:06;;;;;;;;;;;10.10;99.90;;;;;;5056211;28;19932;-70
2022/11/04 00:39:31;;;;;;;;;;;10.00;99.90;;;;;;5069078;28;19924;-70
2022/11/04 00:41:57;;;;;;;;;;;10.00;99.90;;;;;;5068930;28;20407;-69
2022/11/04 00:44:22;;;;;;;;;;;10.10;99.90;;;;;;5098910;27;19928;-70
2022/11/04 00:46:48;;;;;;;;;;;10.10;99.90;;;;;;5078726;28;19966;-71
2022/11/04 00:49:13;;;;;;;;;;;10.20;99.90;;;;;;5057699;28;19920;-74
2022/11/04 00:51:39;;;;;;;;;;;10.30;99.90;;;;;;5074886;28;19931;-70
2022/11/04 00:54:04;;;;;;;;;;;10.40;99.90;;;;;;5053188;28;19924;-70
2022/11/04 00:56:30;;;;;;;;;;;10.50;99.90;;;;;;5070768;28;19930;-72
2022/11/04 00:58:57;;;;;;;;;;;10.50;99.90;;;;;;5067214;28;19963;-68
2022/11/04 01:01:23;;;;;;;;;;;10.50;99.90;;;;;;5070273;28;19920;-69
2022/11/04 01:03:49;;;;;;;;;;;10.60;99.90;;;;;;5069546;28;19924;-73
2022/11/04 01:06:15;;;;;;;;;;;10.50;99.90;;;;;;5071930;28;19959;-72
2022/11/04 01:08:41;;;;;;;;;;;10.50;99.90;;;;;;5073480;28;20342;-68
2022/11/04 01:11:08;;;;;;;;;;;10.40;99.90;;;;;;5106232;27;19920;-71
2022/11/04 01:13:34;;;;;;;;;;;10.50;99.90;;;;;;5065030;28;19920;-69
2022/11/04 01:16:00;;;;;;;;;;;10.60;99.90;;;;;;5082257;28;19930;-69
2022/11/04 01:18:25;;;;;;;;;;;10.50;99.90;;;;;;5063807;28;19929;-71
2022/11/04 01:20:51;;;;;;;;;;;10.40;99.90;;;;;;5081950;28;19928;-72
2022/11/04 01:23:16;;;;;;;;;;;10.50;99.90;;;;;;5085622;28;19990;-72
2022/11/04 01:25:42;;;;;;;;;;;10.40;99.90;;;;;;5078802;28;19920;-72
2022/11/04 01:28:07;;;;;;;;;;;10.40;99.90;;;;;;5081029;28;19946;-70
2022/11/04 01:30:33;;;;;;;;;;;10.50;99.90;;;;;;5072409;28;19970;-69
2022/11/04 01:32:58;;;;;;;;;;;10.60;99.90;;;;;;5072632;28;19931;-71
2022/11/04 01:35:24;;;;;;;;;;;10.50;99.90;;;;;;5099967;27;19924;-67
2022/11/04 01:37:49;;;;;;;;;;;10.50;99.90;;;;;;5078838;28;20423;-71
2022/11/04 01:40:15;;;;;;;;;;;10.60;99.90;;;;;;5077911;28;20022;-68
2022/11/04 01:42:40;;;;;;;;;;;10.60;99.90;;;;;;5075259;28;19989;-70
2022/11/04 01:45:12;;;;;;;;;;;10.70;99.90;;;;;;5059504;28;20389;-71
2022/11/04 01:47:37;;;;;;;;;;;10.70;99.90;;;;;;5080780;28;19924;-70
2022/11/04 01:50:23;;;;;;;;;;;10.60;99.90;;;;;;5074270;28;19924;-70
2022/11/04 01:52:48;;;;;;;;;;;10.60;99.90;;;;;;5073483;28;20393;-71
2022/11/04 01:55:22;;;;;;;;;;;10.60;99.90;;;;;;5068263;28;19971;-71
2022/11/04 01:57:49;;;;;;;;;;;10.50;99.90;;;;;;5073576;28;20290;-70
2022/11/04 02:00:15;;;;;;;;;;;10.60;99.90;;;;;;5078505;28;19920;-73
2022/11/04 02:02:52;;;;;;;;;;;10.50;99.90;;;;;;5079731;28;20276;-72
2022/11/04 02:05:18;;;;;;;;;;;10.60;99.90;;;;;;5070431;28;19993;-72
2022/11/04 02:07:45;;;;;;;;;;;10.50;99.90;;;;;;5104279;27;19927;-74
2022/11/04 02:10:11;;;;;;;;;;;10.50;99.90;;;;;;5069566;28;19931;-74
2022/11/04 02:12:48;;;;;;;;;;;10.60;99.90;;;;;;5073090;28;20370;-75
2022/11/04 02:15:14;;;;;;;;;;;10.50;99.90;;;;;;5069982;28;19928;-74
2022/11/04 02:17:51;;;;;;;;;;;10.40;99.90;;;;;;5074041;28;19924;-73
2022/11/04 02:20:20;;;;;;;;;;;10.50;99.90;;;;;;5073311;28;19936;-75
2022/11/04 02:23:04;;;;;;;;;;;10.50;99.90;;;;;;5101419;27;19928;-74
2022/11/04 02:25:30;;;;;;;;;;;10.50;99.90;;;;;;5050705;28;20294;-74
2022/11/04 02:28:20;;;;;;;;;;;10.50;99.90;;;;;;5070279;28;19920;-74
2022/11/04 02:30:52;;;;;;;;;;;10.40;99.90;;;;;;5080327;28;20290;-74
2022/11/04 02:33:19;;;;;;;;;;;10.40;99.90;;;;;;5075934;28;20215;-73
2022/11/04 02:36:02;;;;;;;;;;;10.50;99.90;;;;;;5076060;28;19921;-71
2022/11/04 02:38:36;;;;;;;;;;;10.40;99.90;;;;;;5079678;28;20347;-74
2022/11/04 02:41:12;;;;;;;;;;;10.40;99.90;;;;;;5096686;27;19920;-73
2022/11/04 02:43:38;;;;;;;;;;;10.30;99.90;;;;;;5071874;28;20033;-69
2022/11/04 02:46:08;;;;;;;;;;;10.40;99.90;;;;;;5099365;27;19943;-71
2022/11/04 02:48:36;;;;;;;;;;;10.30;99.90;;;;;;5071280;28;19924;-74
2022/11/04 02:51:14;;;;;;;;;;;10.30;99.90;;;;;;5068759;28;19924;-73
2022/11/04 02:53:42;;;;;;;;;;;10.30;99.90;;;;;;5070650;28;19928;-75
2022/11/04 02:56:08;;;;;;;;;;;10.30;99.90;;;;;;5069490;28;19921;-73
2022/11/04 02:58:39;;;;;;;;;;;10.30;99.90;;;;;;5072112;28;19920;-71
2022/11/04 03:01:06;;;;;;;;;;;10.30;99.90;;;;;;5070899;28;19945;-73
2022/11/04 03:03:34;;;;;;;;;;;10.20;99.90;;;;;;5088662;28;19924;-75
2022/11/04 03:06:00;;;;;;;;;;;10.10;99.90;;;;;;5068431;28;19925;-70
2022/11/04 03:08:28;;;;;;;;;;;10.10;99.90;;;;;;5071636;28;19966;-68
2022/11/04 03:10:58;;;;;;;;;;;9.90;99.90;;;;;;5063619;28;20003;-69
2022/11/04 03:13:32;;;;;;;;;;;9.90;99.90;;;;;;5099736;27;20359;-68
2022/11/04 03:16:00;;;;;;;;;;;9.90;99.90;;;;;;5049433;28;20289;-71
2022/11/04 03:18:34;;;;;;;;;;;9.90;99.90;;;;;;5098689;27;20366;-69
2022/11/04 03:21:01;;;;;;;;;;;9.90;99.90;;;;;;5050786;28;19928;-70
2022/11/04 03:23:26;;;;;;;;;;;9.90;99.90;;;;;;5074377;28;19928;-71
2022/11/04 03:25:56;;;;;;;;;;;9.80;99.90;;;;;;5097174;27;19920;-72
2022/11/04 03:28:37;;;;;;;;;;;9.80;99.90;;;;;;5070095;28;19920;-72
2022/11/04 03:31:04;;;;;;;;;;;9.80;99.90;;;;;;5067558;28;19921;-71
2022/11/04 03:33:29;;;;;;;;;;;9.70;99.90;;;;;;5075878;28;20153;-72
2022/11/04 03:35:55;;;;;;;;;;;9.80;99.90;;;;;;5099848;27;20010;-72
2022/11/04 03:38:21;;;;;;;;;;;9.70;99.90;;;;;;5073143;28;20375;-70
2022/11/04 03:40:47;;;;;;;;;;;9.80;99.90;;;;;;5071987;28;19924;-74
2022/11/04 03:43:24;;;;;;;;;;;9.70;99.90;;;;;;5061287;28;19979;-71
2022/11/04 03:45:50;;;;;;;;;;;9.80;99.90;;;;;;5066718;28;19944;-71
2022/11/04 03:48:16;;;;;;;;;;;9.70;99.90;;;;;;5067752;28;20386;-72
2022/11/04 03:50:42;;;;;;;;;;;9.80;99.90;;;;;;5072760;28;20146;-74
2022/11/04 03:53:09;;;;;;;;;;;9.80;99.90;;;;;;5071958;28;19928;-72
2022/11/04 03:55:50;;;;;;;;;;;9.70;99.90;;;;;;5072472;28;19920;-74
2022/11/04 03:58:15;;;;;;;;;;;9.80;99.90;;;;;;5071198;28;19920;-72
2022/11/04 04:00:45;;;;;;;;;;;9.80;99.90;;;;;;5067239;28;19925;-74
2022/11/04 04:03:20;;;;;;;;;;;9.80;99.90;;;;;;5090004;27;19928;-70
2022/11/04 04:05:48;;;;;;;;;;;9.80;99.90;;;;;;5061329;28;19946;-71
2022/11/04 04:08:25;;;;;;;;;;;9.80;99.90;;;;;;5100624;27;19920;-71
2022/11/04 04:11:06;;;;;;;;;;;9.90;99.90;;;;;;5056696;28;19920;-68
2022/11/04 04:13:31;;;;;;;;;;;9.70;99.90;;;;;;5068816;28;19924;-71
2022/11/04 04:15:59;;;;;;;;;;;9.80;99.90;;;;;;5053844;28;20382;-72
2022/11/04 04:18:29;;;;;;;;;;;9.70;99.90;;;;;;5074623;28;19925;-70
2022/11/04 04:20:57;;;;;;;;;;;9.60;99.90;;;;;;5095098;27;19927;-71
2022/11/04 04:28:55;;;;;;;;;;;9.60;99.90;;;;;;5069590;28;20019;-70
2022/11/04 04:34:06;;;;;;;;;;;9.50;99.90;;;;;;5071218;28;20392;-69
2022/11/04 04:36:40;;;;;;;;;;;9.30;99.90;;;;;;5066704;28;19936;-70
2022/11/04 04:47:21;;;;;;;;;;;8.80;99.90;;;;;;5068386;28;19931;-73
2022/11/04 04:49:50;;;;;;;;;;;8.70;99.90;;;;;;5071377;28;19988;-73
2022/11/04 04:52:16;;;;;;;;;;;8.80;99.90;;;;;;5077998;28;19939;-73
2022/11/04 04:54:41;;;;;;;;;;;8.70;99.90;;;;;;5068758;28;19921;-73
2022/11/04 04:57:07;;;;;;;;;;;8.70;99.90;;;;;;5063464;28;20261;-72
2022/11/04 04:59:32;;;;;;;;;;;8.70;99.90;;;;;;5075275;28;20383;-72
2022/11/04 05:01:57;;;;;;;;;;;8.80;99.90;;;;;;5070011;28;19971;-72
2022/11/04 05:04:23;;;;;;;;;;;8.70;99.90;;;;;;5097956;28;20344;-72
2022/11/04 05:06:48;;;;;;;;;;;8.80;99.90;;;;;;5088733;28;19920;-72
2022/11/04 05:09:14;;;;;;;;;;;8.80;99.90;;;;;;5067806;28;19924;-71
2022/11/04 05:11:39;;;;;;;;;;;8.70;99.90;;;;;;5078230;28;19928;-73
2022/11/04 05:14:05;;;;;;;;;;;8.70;99.90;;;;;;5074636;28;19925;-74
2022/11/04 05:16:30;;;;;;;;;;;8.60;99.90;;;;;;5077125;28;20019;-72
2022/11/04 05:18:56;;;;;;;;;;;8.60;99.90;;;;;;5066922;28;19927;-72
2022/11/04 05:21:21;;;;;;;;;;;8.50;99.90;;;;;;5075238;28;19920;-72
2022/11/04 05:23:47;;;;;;;;;;;8.50;99.90;;;;;;5065700;28;19929;-73
2022/11/04 05:26:14;;;;;;;;;;;8.50;99.90;;;;;;5071859;28;20051;-74
2022/11/04 05:28:39;;;;;;;;;;;8.50;99.90;;;;;;5051912;28;20355;-75
2022/11/04 05:31:05;;;;;;;;;;;8.30;99.90;;;;;;5074134;28;19927;-74
2022/11/04 05:33:31;;;;;;;;;;;8.30;99.90;;;;;;5068338;28;20366;-74
2022/11/04 05:36:06;;;;;;;;;;;8.20;99.90;;;;;;5073434;28;19921;-74
2022/11/04 05:38:31;;;;;;;;;;;8.20;99.90;;;;;;5070781;28;20373;-73
2022/11/04 05:40:57;;;;;;;;;;;8.10;99.90;;;;;;5070591;28;19920;-74
2022/11/04 05:43:22;;;;;;;;;;;8.10;99.90;;;;;;5069590;28;19963;-74
2022/11/04 05:45:48;;;;;;;;;;;8.10;99.90;;;;;;5060021;28;20534;-73
2022/11/04 05:48:13;;;;;;;;;;;8.10;99.90;;;;;;5064745;28;20397;-74
2022/11/04 05:50:40;;;;;;;;;;;8.10;99.90;;;;;;5067883;28;19920;-74
2022/11/04 05:53:05;;;;;;;;;;;8.10;99.90;;;;;;5076448;28;19959;-73
2022/11/04 05:55:31;;;;;;;;;;;8.00;99.90;;;;;;5061924;28;19986;-73
2022/11/04 05:57:59;;;;;;;;;;;8.10;99.90;;;;;;5079127;28;19924;-74
2022/11/04 06:00:25;;;;;;;;;;;8.00;99.90;;;;;;5071503;28;20011;-73
2022/11/04 06:02:51;;;;;;;;;;;8.10;99.90;;;;;;5076857;28;19979;-73
2022/11/04 06:05:16;;;;;;;;;;;8.10;99.90;;;;;;5077721;28;19928;-73
2022/11/04 06:07:42;;;;;;;;;;;8.20;99.90;;;;;;5079235;28;19928;-74
2022/11/04 06:10:08;;;;;;;;;;;8.30;99.90;;;;;;5070584;28;19957;-69
2022/11/04 06:12:33;;;;;;;;;;;8.20;99.90;;;;;;5071137;28;20228;-69
2022/11/04 06:14:59;;;;;;;;;;;8.10;99.90;;;;;;5073549;28;19920;-70
2022/11/04 06:17:24;;;;;;;;;;;8.10;99.90;;;;;;5071059;28;19924;-69
2022/11/04 06:19:50;;;;;;;;;;;8.10;99.90;;;;;;5074231;28;19928;-71
2022/11/04 06:22:16;;;;;;;;;;;8.10;99.90;;;;;;5069836;28;20071;-70
2022/11/04 06:24:42;;;;;;;;;;;8.30;99.90;;;;;;5075087;28;19935;-71
2022/11/04 06:27:08;;;;;;;;;;;8.30;99.90;;;;;;5069809;28;19921;-71
2022/11/04 06:29:35;;;;;;;;;;;8.30;99.90;;;;;;5066379;28;19971;-71
2022/11/04 06:32:00;;;;;;;;;;;8.30;99.90;;;;;;5070241;28;19963;-71
2022/11/04 06:34:26;;;;;;;;;;;8.30;99.90;;;;;;5069825;28;19951;-71
2022/11/04 06:36:51;;;;;;;;;;;8.30;99.90;;;;;;5071119;28;19924;-70
2022/11/04 06:39:17;;;;;;;;;;;8.40;99.90;;;;;;5057357;28;19943;-70
2022/11/04 06:41:42;;;;;;;;;;;8.30;99.90;;;;;;5050905;28;19959;-71
2022/11/04 06:44:08;;;;;;;;;;;8.30;99.90;;;;;;5058386;28;20012;-71
2022/11/04 06:46:36;;;;;;;;;;;8.30;99.90;;;;;;5067240;28;20011;-71
2022/11/04 06:49:02;;;;;;;;;;;8.30;99.90;;;;;;5066822;28;19920;-72
2022/11/04 06:51:28;;;;;;;;;;;8.20;99.90;;;;;;5103260;28;19932;-72
2022/11/04 06:53:53;;;;;;;;;;;8.10;99.90;;;;;;5062061;28;19951;-71
2022/11/04 06:56:19;;;;;;;;;;;8.10;99.90;;;;;;5070171;28;19920;-69
2022/11/04 06:58:48;;;;;;;;;;;8.00;99.90;;;;;;5067163;28;19920;-71
2022/11/04 07:01:15;;;;;;;;;;;8.00;99.90;;;;;;5058153;28;19920;-71
2022/11/04 07:03:40;;;;;;;;;;;8.00;99.90;;;;;;5068658;28;19928;-71
2022/11/04 07:06:06;;;;;;;;;;;8.00;99.90;;;;;;5068942;28;20011;-72
2022/11/04 07:08:32;;;;;;;;;;;8.00;99.90;;;;;;5066051;28;20389;-72
2022/11/04 07:10:57;;;;;;;;;;;8.20;99.90;;;;;;5050665;28;20023;-71
2022/11/04 07:13:23;;;;;;;;;;;8.20;99.90;;;;;;5050895;28;19928;-73
2022/11/04 07:15:48;;;;;;;;;;;8.30;99.90;;;;;;5060639;28;19928;-73
2022/11/04 07:18:14;;;;;;;;;;;8.50;99.90;;;;;;5070372;28;19982;-72
2022/11/04 07:20:39;;;;;;;;;;;8.40;99.90;;;;;;5064921;28;19924;-72
2022/11/04 07:23:05;;;;;;;;;;;8.60;99.90;;;;;;5067541;28;19925;-73
2022/11/04 07:25:30;;;;;;;;;;;8.50;99.90;;;;;;5068889;28;20290;-72
2022/11/04 07:27:56;;;;;;;;;;;8.50;99.90;;;;;;5108929;27;20374;-73
2022/11/04 07:30:21;;;;;;;;;;;8.70;99.90;;;;;;5077372;28;19981;-73
2022/11/04 07:32:47;;;;;;;;;;;8.80;99.90;;;;;;5077542;28;19931;-72
2022/11/04 07:35:12;;;;;;;;;;;8.80;99.90;;;;;;5075721;28;20366;-71
2022/11/04 07:37:38;;;;;;;;;;;8.80;99.90;;;;;;5069946;28;19928;-73
2022/11/04 07:40:04;;;;;;;;;;;8.80;99.90;;;;;;5079234;28;20019;-72
2022/11/04 07:42:30;;;;;;;;;;;9.00;99.90;;;;;;5068243;28;20007;-71
2022/11/04 07:44:55;;;;;;;;;;;9.00;99.90;;;;;;5081657;28;20003;-72
2022/11/04 07:47:21;;;;;;;;;;;9.00;99.90;;;;;;5062420;28;19924;-71
2022/11/04 07:49:46;;;;;;;;;;;9.00;99.90;;;;;;5077305;28;19924;-72
2022/11/04 07:52:12;;;;;;;;;;;9.20;99.90;;;;;;5075143;28;20409;-72
2022/11/04 07:54:37;;;;;;;;;;;9.20;99.90;;;;;;5054661;28;20390;-71
2022/11/04 07:57:03;;;;;;;;;;;9.20;99.90;;;;;;5068871;28;20405;-73
2022/11/04 07:59:29;;;;;;;;;;;9.30;99.90;;;;;;5059938;28;20067;-72
2022/11/04 08:01:54;;;;;;;;;;;9.40;99.90;;;;;;5075802;28;19920;-71
2022/11/04 08:04:20;;;;;;;;;;;9.30;99.90;;;;;;5066975;28;19929;-73
2022/11/04 08:06:45;;;;;;;;;;;9.40;99.90;;;;;;5080024;28;20330;-72
2022/11/04 08:09:11;;;;;;;;;;;9.20;99.90;;;;;;5074711;28;19928;-71
2022/11/04 08:11:36;;;;;;;;;;;9.20;99.90;;;;;;5071075;28;20428;-72
2022/11/04 08:14:02;;;;;;;;;;;9.20;99.90;;;;;;5074507;28;19927;-71
2022/11/04 08:16:28;;;;;;;;;;;9.20;99.90;;;;;;5080069;28;20014;-71
2022/11/04 08:18:54;;;;;;;;;;;9.10;99.90;;;;;;5071330;28;20072;-71
2022/11/04 08:21:20;;;;;;;;;;;9.10;99.90;;;;;;5054430;28;19920;-72
2022/11/04 08:23:46;;;;;;;;;;;9.00;99.90;;;;;;5058002;28;19928;-72
2022/11/04 08:26:15;;;;;;;;;;;8.90;99.90;;;;;;5071299;28;19978;-72
2022/11/04 08:28:41;;;;;;;;;;;8.90;99.90;;;;;;5056441;28;19928;-71
2022/11/04 08:31:08;;;;;;;;;;;8.90;99.90;;;;;;5060888;28;20386;-72
2022/11/04 08:33:34;;;;;;;;;;;8.80;99.90;;;;;;5072171;28;19920;-71
2022/11/04 08:36:02;;;;;;;;;;;9.00;99.90;;;;;;5070180;28;19939;-71
2022/11/04 08:38:28;;;;;;;;;;;9.00;99.90;;;;;;5075589;28;19940;-73
2022/11/04 08:40:57;;;;;;;;;;;9.00;99.90;;;;;;5073409;28;19920;-73
2022/11/04 08:43:22;;;;;;;;;;;9.20;99.90;;;;;;5077842;28;19930;-72
2022/11/04 08:45:47;;;;;;;;;;;9.30;99.90;;;;;;5070140;28;20035;-72
2022/11/04 08:48:15;;;;;;;;;;;9.20;99.90;;;;;;5077173;28;20267;-72
2022/11/04 08:50:41;;;;;;;;;;;9.30;99.90;;;;;;5076444;28;19928;-72
2022/11/04 08:53:07;;;;;;;;;;;9.30;99.90;;;;;;5077518;28;19928;-72
2022/11/04 08:55:32;;;;;;;;;;;9.30;99.90;;;;;;5069540;28;19927;-72
2022/11/04 08:57:58;;;;;;;;;;;9.50;99.90;;;;;;5069391;28;19921;-73
2022/11/04 09:00:24;;;;;;;;;;;9.50;99.90;;;;;;5069964;28;19978;-72
2022/11/04 09:02:49;;;;;;;;;;;9.50;99.90;;;;;;5084071;28;19947;-74
2022/11/04 09:05:15;;;;;;;;;;;9.50;99.90;;;;;;5071222;28;20290;-73
2022/11/04 09:07:41;;;;;;;;;;;9.60;99.90;;;;;;5070321;28;19928;-73
2022/11/04 09:10:08;;;;;;;;;;;9.60;99.90;;;;;;5066930;28;19927;-74
2022/11/04 09:12:34;;;;;;;;;;;9.80;99.90;;;;;;5058866;28;20363;-73
2022/11/04 09:14:59;;;;;;;;;;;9.70;99.90;;;;;;5079445;28;19920;-73
2022/11/04 09:17:25;;;;;;;;;;;9.90;99.90;;;;;;5068218;28;20389;-74
2022/11/04 09:19:50;;;;;;;;;;;9.80;99.90;;;;;;5070954;28;19928;-73
2022/11/04 09:22:16;;;;;;;;;;;10.00;99.90;;;;;;5073256;28;19928;-74
2022/11/04 09:24:42;;;;;;;;;;;9.90;99.90;;;;;;5079144;28;19924;-72
2022/11/04 09:27:07;;;;;;;;;;;10.10;99.90;;;;;;5070117;28;19921;-74
2022/11/04 09:29:35;;;;;;;;;;;10.00;99.90;;;;;;5064699;28;19920;-72
2022/11/04 09:32:03;;;;;;;;;;;10.10;99.90;;;;;;5107871;27;20006;-73
2022/11/04 09:34:29;;;;;;;;;;;10.20;99.90;;;;;;5067238;28;20287;-72
2022/11/04 09:36:55;;;;;;;;;;;10.30;99.90;;;;;;5068685;28;20367;-73
2022/11/04 09:39:21;;;;;;;;;;;10.30;99.90;;;;;;5071137;28;19932;-72
2022/11/04 09:41:47;;;;;;;;;;;10.40;99.90;;;;;;5075416;28;19939;-73
2022/11/04 09:44:31;;;;;;;;;;;10.40;99.90;;;;;;5084899;28;19928;-71
2022/11/04 09:46:59;;;;;;;;;;;10.60;99.90;;;;;;5059677;28;20321;-72
2022/11/04 09:49:26;;;;;;;;;;;10.60;99.90;;;;;;5079205;28;20007;-73
2022/11/04 09:51:53;;;;;;;;;;;10.60;99.90;;;;;;5067884;28;19920;-73
2022/11/04 09:54:18;;;;;;;;;;;10.60;99.90;;;;;;5050482;28;19920;-73
2022/11/04 09:56:45;;;;;;;;;;;10.70;99.90;;;;;;5069970;28;19920;-73
2022/11/04 09:59:13;;;;;;;;;;;10.60;99.90;;;;;;5077339;28;19931;-72
2022/11/04 10:01:48;;;;;;;;;;;10.50;99.90;;;;;;5075086;28;19974;-72
2022/11/04 10:04:29;;;;;;;;;;;10.70;99.90;;;;;;5079493;28;19924;-72
2022/11/04 10:07:10;;;;;;;;;;;10.70;99.90;;;;;;5070000;28;19920;-72
2022/11/04 10:09:48;;;;;;;;;;;10.80;99.90;;;;;;5111372;27;20349;-73
2022/11/04 10:12:25;;;;;;;;;;;10.90;99.90;;;;;;5106394;27;20003;-72
2022/11/04 10:14:59;;;;;;;;;;;10.90;99.90;;;;;;5080028;28;20006;-73
2022/11/04 10:17:25;;;;;;;;;;;10.90;99.90;;;;;;5079852;28;19920;-72
2022/11/04 10:20:12;;;;;;;;;;;11.00;99.90;;;;;;5083392;28;20868;-73
2022/11/04 10:22:56;;;;;;;;;;;11.00;99.90;;;;;;5070184;28;19939;-73
2022/11/04 10:25:23;;;;;;;;;;;11.00;99.90;;;;;;5076588;28;19920;-74
2022/11/04 10:27:50;;;;;;;;;;;11.00;99.90;;;;;;5078603;28;19943;-74
2022/11/04 10:30:15;;;;;;;;;;;11.10;99.90;;;;;;5078209;28;19920;-74
2022/11/04 10:33:00;;;;;;;;;;;11.10;99.90;;;;;;5061330;28;19920;-75
2022/11/04 10:35:45;;;;;;;;;;;11.30;99.90;;;;;;5112889;27;19919;-72
2022/11/04 10:38:19;;;;;;;;;;;11.30;99.90;;;;;;5103043;27;19928;-71
2022/11/04 10:40:52;;;;;;;;;;;11.30;99.90;;;;;;5080210;28;19931;-74
2022/11/04 10:43:32;;;;;;;;;;;11.40;99.90;;;;;;5072348;28;20331;-73
2022/11/04 10:46:14;;;;;;;;;;;11.50;99.90;;;;;;5069521;28;19920;-73
2022/11/04 10:48:52;;;;;;;;;;;11.70;99.90;;;;;;5062115;28;19928;-73
2022/11/04 10:51:20;;;;;;;;;;;11.70;99.90;;;;;;5064440;28;19932;-73
2022/11/04 10:53:47;;;;;;;;;;;11.70;99.90;;;;;;5070608;28;19924;-72
2022/11/04 10:56:18;;;;;;;;;;;11.70;99.90;;;;;;5070046;28;19928;-73
2022/11/04 10:58:45;;;;;;;;;;;11.50;99.90;;;;;;5058817;28;20390;-71
2022/11/04 11:01:25;;;;;;;;;;;11.50;99.90;;;;;;5066859;28;19929;-73
2022/11/04 11:03:50;;;;;;;;;;;11.20;99.90;;;;;;5054721;28;19928;-74
2022/11/04 11:06:42;;;;;;;;;;;11.10;99.90;;;;;;5051214;28;19920;-72
2022/11/04 11:09:12;;;;;;;;;;;11.10;99.90;;;;;;5085398;28;20287;-72
2022/11/04 11:11:41;;;;;;;;;;;11.30;99.90;;;;;;5067824;28;19932;-72
2022/11/04 11:14:30;;;;;;;;;;;11.40;99.90;;;;;;5054337;28;19954;-74
2022/11/04 11:16:56;;;;;;;;;;;11.60;99.90;;;;;;5085529;28;19924;-72
2022/11/04 11:19:23;;;;;;;;;;;11.70;99.90;;;;;;5085810;28;19920;-72
2022/11/04 11:21:50;;;;;;;;;;;11.80;99.90;;;;;;5051004;28;20314;-73
2022/11/04 11:24:22;;;;;;;;;;;11.90;99.90;;;;;;5040900;28;19925;-72
2022/11/04 11:26:55;;;;;;;;;;;11.90;99.90;;;;;;5051293;28;19967;-75
2022/11/04 11:29:23;;;;;;;;;;;12.10;99.90;;;;;;5085929;28;19929;-74
2022/11/04 11:31:49;;;;;;;;;;;12.20;99.90;;;;;;5109422;27;20405;-75
2022/11/04 11:34:17;;;;;;;;;;;12.20;99.90;;;;;;5068934;28;19956;-75
2022/11/04 11:36:47;;;;;;;;;;;12.30;99.90;;;;;;5070794;28;19944;-72
2022/11/04 11:39:20;;;;;;;;;;;12.50;99.90;;;;;;5051643;28;19925;-74
2022/11/04 11:41:48;;;;;;;;;;;12.60;99.90;;;;;;5091555;28;19927;-73
2022/11/04 11:44:33;;;;;;;;;;;12.70;99.90;;;;;;5067153;28;19931;-73
2022/11/04 11:47:00;;;;;;;;;;;12.70;99.90;;;;;;5077114;28;19943;-72
2022/11/04 11:49:29;;;;;;;;;;;12.80;99.90;;;;;;5085378;28;19970;-74
2022/11/04 11:51:55;;;;;;;;;;;12.90;99.90;;;;;;5069674;28;20006;-72
2022/11/04 11:54:32;;;;;;;;;;;13.00;99.90;;;;;;5065343;28;20015;-74
2022/11/04 11:56:59;;;;;;;;;;;12.90;99.90;;;;;;5070761;28;19924;-72
2022/11/04 11:59:26;;;;;;;;;;;12.80;99.90;;;;;;5056682;28;19979;-73
2022/11/04 12:02:31;;;;;;;;;;;12.70;99.90;;;;;;5063693;28;20375;-71
2022/11/04 12:04:57;;;;;;;;;;;12.60;99.90;;;;;;4999314;28;19928;-74
2022/11/04 12:07:26;;;;;;;;;;;12.40;99.90;;;;;;4992151;28;19933;-71
2022/11/04 12:09:56;;;;;;;;;;;12.30;99.90;;;;;;5009508;28;19921;-71
2022/11/04 12:12:25;;;;;;;;;;;12.10;99.90;;;;;;5083890;28;19921;-73
2022/11/04 12:14:50;;;;;;;;;;;12.00;99.90;;;;;;5089867;27;19924;-73
2022/11/04 12:17:31;;;;;;;;;;;11.90;99.90;;;;;;5069265;28;20425;-74
2022/11/04 12:20:16;;;;;;;;;;;11.90;99.90;;;;;;5105099;27;20431;-72
2022/11/04 12:23:00;;;;;;;;;;;11.90;99.90;;;;;;5078758;28;19982;-73
2022/11/04 12:25:30;;;;;;;;;;;12.00;99.90;;;;;;5050922;28;20004;-73
2022/11/04 12:28:14;;;;;;;;;;;12.20;99.90;;;;;;5090765;28;19925;-71
2022/11/04 12:30:50;;;;;;;;;;;12.40;99.90;;;;;;5062664;28;19927;-71
2022/11/04 12:33:30;;;;;;;;;;;12.60;99.90;;;;;;5105589;27;19942;-72
2022/11/04 12:36:05;;;;;;;;;;;12.60;99.90;;;;;;5078710;28;20158;-71
2022/11/04 12:38:49;;;;;;;;;;;12.70;99.90;;;;;;5078237;28;20062;-71
2022/11/04 12:41:32;;;;;;;;;;;12.60;99.90;;;;;;5067071;28;19927;-71
2022/11/04 12:44:11;;;;;;;;;;;12.50;99.90;;;;;;5075286;28;19931;-71
2022/11/04 12:46:42;;;;;;;;;;;12.40;99.90;;;;;;5072376;28;19940;-70
2022/11/04 12:49:17;;;;;;;;;;;12.30;99.90;;;;;;5078885;28;20511;-70
2022/11/04 12:51:51;;;;;;;;;;;12.20;99.90;;;;;;5055997;28;19928;-70
2022/11/04 12:54:19;;;;;;;;;;;12.20;99.90;;;;;;5076088;28;20054;-72
2022/11/04 12:56:50;;;;;;;;;;;12.10;99.90;;;;;;5067890;28;19924;-72
2022/11/04 12:59:15;;;;;;;;;;;12.10;99.90;;;;;;5075674;28;20271;-73
2022/11/04 13:01:45;;;;;;;;;;;12.10;99.90;;;;;;5073251;28;19927;-72
2022/11/04 13:04:18;;;;;;;;;;;12.10;99.90;;;;;;5073192;28;19932;-72
2022/11/04 13:07:05;;;;;;;;;;;12.10;99.90;;;;;;5062598;28;20526;-72
2022/11/04 13:09:30;;;;;;;;;;;12.10;99.90;;;;;;5064999;28;19929;-73
2022/11/04 13:12:16;;;;;;;;;;;12.20;99.90;;;;;;5071670;28;19943;-73
2022/11/04 13:14:57;;;;;;;;;;;12.30;99.90;;;;;;5070523;28;20365;-72
2022/11/04 13:17:25;;;;;;;;;;;12.30;99.90;;;;;;5106028;28;19969;-68
2022/11/04 13:19:52;;;;;;;;;;;12.30;99.90;;;;;;5061165;28;19924;-72
2022/11/04 13:22:23;;;;;;;;;;;12.30;99.90;;;;;;5066687;28;19928;-70
2022/11/04 13:25:03;;;;;;;;;;;12.30;99.90;;;;;;5071137;28;19927;-74
2022/11/04 13:27:32;;;;;;;;;;;12.20;99.90;;;;;;5075670;28;19925;-72
2022/11/04 13:30:03;;;;;;;;;;;12.10;99.90;;;;;;5076252;28;19920;-73
2022/11/04 13:32:36;;;;;;;;;;;12.00;99.90;;;;;;5070305;28;20290;-73
2022/11/04 13:35:17;;;;;;;;;;;11.90;99.90;;;;;;5058520;28;19931;-73
2022/11/04 13:37:56;;;;;;;;;;;11.80;99.90;;;;;;5078078;28;19920;-73
2022/11/04 13:40:23;;;;;;;;;;;11.70;99.90;;;;;;5074309;28;19928;-73
2022/11/04 13:45:52;;;;;;;;;;;11.50;99.90;;;;;;5062997;28;19935;-73
2022/11/04 13:48:25;;;;;;;;;;;11.50;99.90;;;;;;5060843;28;19964;-74
2022/11/04 13:51:10;;;;;;;;;;;11.40;99.90;;;;;;5048387;28;20016;-73
2022/11/04 13:53:39;;;;;;;;;;;11.40;99.90;;;;;;5060124;28;20379;-73
2022/11/04 13:56:05;;;;;;;;;;;11.40;99.90;;;;;;5067230;28;19920;-74
2022/11/04 13:58:32;;;;;;;;;;;11.40;99.90;;;;;;5068044;28;20392;-74
2022/11/04 14:01:27;;;;;;;;;;;11.30;99.90;;;;;;5066251;28;20294;-74
2022/11/04 14:04:00;;;;;;;;;;;11.30;99.90;;;;;;5064614;28;19925;-73
2022/11/04 14:06:44;;;;;;;;;;;11.30;99.90;;;;;;5057492;28;20015;-74
2022/11/04 14:09:22;;;;;;;;;;;11.20;99.90;;;;;;5066788;28;19928;-74
2022/11/04 14:12:07;;;;;;;;;;;11.20;99.90;;;;;;5057561;28;19925;-74
2022/11/04 14:14:33;;;;;;;;;;;11.10;99.90;;;;;;5079137;28;19924;-75
2022/11/04 14:17:00;;;;;;;;;;;11.20;99.90;;;;;;5069746;28;19920;-74
2022/11/04 14:19:54;;;;;;;;;;;11.20;99.90;;;;;;5057443;28;20385;-75
2022/11/04 14:22:20;;;;;;;;;;;11.10;99.90;;;;;;5099353;27;20080;-75
2022/11/04 14:25:18;;;;;;;;;;;11.20;99.90;;;;;;5069153;28;19966;-75
2022/11/04 14:27:45;;;;;;;;;;;11.10;99.90;;;;;;5086937;28;19923;-74
2022/11/04 14:30:29;;;;;;;;;;;11.20;99.90;;;;;;5072064;28;20332;-73
2022/11/04 14:32:57;;;;;;;;;;;11.10;99.90;;;;;;5074334;28;19923;-73
2022/11/04 14:35:24;;;;;;;;;;;11.00;99.90;;;;;;5081084;28;19946;-74
2022/11/04 14:37:52;;;;;;;;;;;11.00;99.90;;;;;;5060344;28;20433;-73
2022/11/04 14:40:26;;;;;;;;;;;10.90;99.90;;;;;;5071854;28;19920;-74
2022/11/04 14:42:54;;;;;;;;;;;10.90;99.90;;;;;;5073940;28;20347;-75
2022/11/04 14:45:21;;;;;;;;;;;10.80;99.90;;;;;;5069348;28;19924;-74
2022/11/04 14:47:48;;;;;;;;;;;10.70;99.90;;;;;;5088236;28;19963;-73
2022/11/04 14:50:19;;;;;;;;;;;10.70;99.90;;;;;;5081249;28;19921;-75
2022/11/04 14:52:47;;;;;;;;;;;10.70;99.90;;;;;;5066324;28;20286;-75
2022/11/04 14:55:15;;;;;;;;;;;10.80;99.90;;;;;;5088528;28;19927;-74
2022/11/04 14:57:44;;;;;;;;;;;10.80;99.90;;;;;;5065359;28;19969;-75
2022/11/04 15:00:36;;;;;;;;;;;10.80;99.90;;;;;;5076727;28;20165;-73
2022/11/04 15:03:05;;;;;;;;;;;10.90;99.90;;;;;;5071940;28;19930;-75
2022/11/04 15:05:35;;;;;;;;;;;10.90;99.90;;;;;;5087953;28;20343;-71
2022/11/04 15:08:02;;;;;;;;;;;10.90;99.90;;;;;;5076725;28;19926;-73
2022/11/04 15:10:28;;;;;;;;;;;10.90;99.90;;;;;;5072710;28;20393;-74
2022/11/04 15:13:00;;;;;;;;;;;10.90;99.90;;;;;;5101320;27;20453;-74